Time;durP1;ratioP1;P1;durP2;ratioP2;P2;SDS_P1;SDS_P2;PMS_P1;PMS_P2;Temp;Humidity;BMP_temperature;BMP_pressure;BME280_temperature;BME280_humidity;BME280_pressure;Samples;Min_cycle;Max_cycle;Signal;HPM_P1;HPM_P2
2021/03/31 00:01:19;;;;;;;24.23;14.02;;;12.70;71.70;;;;;;5010529;28;20029;-69
2021/03/31 00:03:45;;;;;;;25.77;14.13;;;12.70;70.80;;;;;;5010229;28;20103;-70
2021/03/31 00:06:11;;;;;;;32.47;15.77;;;12.70;70.60;;;;;;5008018;28;20459;-69
2021/03/31 00:08:38;;;;;;;30.33;14.32;;;12.60;70.90;;;;;;5009259;28;20671;-69
2021/03/31 00:11:04;;;;;;;29.65;14.15;;;12.70;71.60;;;;;;5010247;28;20038;-69
2021/03/31 00:13:30;;;;;;;31.45;15.00;;;12.60;71.00;;;;;;5008776;28;20041;-69
2021/03/31 00:15:56;;;;;;;30.63;15.50;;;12.60;71.70;;;;;;5009392;28;20026;-69
2021/03/31 00:18:23;;;;;;;26.88;14.23;;;12.60;71.20;;;;;;5014097;28;20402;-69
2021/03/31 00:20:50;;;;;;;30.67;15.18;;;12.60;71.10;;;;;;5012253;28;20029;-69
2021/03/31 00:23:21;;;;;;;29.30;14.90;;;12.50;71.80;;;;;;5009467;28;20038;-70
2021/03/31 00:25:46;;;;;;;26.90;14.95;;;12.50;71.60;;;;;;5012644;28;20478;-71
2021/03/31 00:28:12;;;;;;;30.40;14.25;;;12.50;72.00;;;;;;5013319;28;20030;-70
2021/03/31 00:30:39;;;;;;;26.58;14.23;;;12.50;72.40;;;;;;5013605;28;20044;-69
2021/03/31 00:33:06;;;;;;;27.65;13.73;;;12.40;71.80;;;;;;5012171;28;20103;-69
2021/03/31 00:35:31;;;;;;;33.90;14.80;;;12.40;72.10;;;;;;5013723;28;20026;-69
2021/03/31 00:37:57;;;;;;;22.33;13.50;;;12.40;72.50;;;;;;5012602;28;20049;-69
2021/03/31 00:40:26;;;;;;;23.98;13.27;;;12.40;72.20;;;;;;5012622;28;20061;-69
2021/03/31 00:42:52;;;;;;;28.60;13.48;;;12.40;72.40;;;;;;5013418;28;20113;-69
2021/03/31 00:45:18;;;;;;;27.58;14.07;;;12.30;72.40;;;;;;5013475;28;20034;-69
2021/03/31 00:47:44;;;;;;;29.10;14.95;;;12.30;72.80;;;;;;5012652;28;20061;-69
2021/03/31 00:50:18;;;;;;;25.83;13.85;;;12.30;72.70;;;;;;5013410;28;20034;-69
2021/03/31 00:52:45;;;;;;;29.00;13.95;;;12.20;72.90;;;;;;5013043;28;20022;-69
2021/03/31 00:55:13;;;;;;;27.95;14.10;;;12.20;72.90;;;;;;5011971;28;20115;-69
2021/03/31 00:57:40;;;;;;;27.73;14.55;;;12.20;72.70;;;;;;5013185;28;20029;-71
2021/03/31 01:00:07;;;;;;;25.58;15.02;;;12.20;72.90;;;;;;5012914;28;20088;-69
2021/03/31 01:02:33;;;;;;;29.20;15.50;;;12.10;72.60;;;;;;5012184;28;20030;-70
2021/03/31 01:04:59;;;;;;;29.73;14.05;;;12.10;72.80;;;;;;5013716;28;20037;-69
2021/03/31 01:07:25;;;;;;;28.58;13.75;;;12.10;72.90;;;;;;5013003;28;20084;-69
2021/03/31 01:09:54;;;;;;;30.35;14.70;;;12.10;73.30;;;;;;5012674;28;20030;-69
2021/03/31 01:12:40;;;;;;;28.52;14.52;;;12.00;72.80;;;;;;5011904;28;20483;-70
2021/03/31 01:15:15;;;;;;;23.67;13.70;;;12.00;74.30;;;;;;5010273;28;20022;-70
2021/03/31 01:17:55;;;;;;;30.13;15.10;;;12.00;73.10;;;;;;5012264;28;20084;-70
2021/03/31 01:20:42;;;;;;;27.83;13.98;;;12.00;73.30;;;;;;5012960;28;20033;-69
2021/03/31 01:23:44;;;;;;;26.55;15.15;;;12.00;73.80;;;;;;5011896;28;20557;-70
2021/03/31 01:26:29;;;;;;;30.65;13.77;;;11.90;73.60;;;;;;5012530;28;20502;-69
2021/03/31 01:29:11;;;;;;;26.50;12.70;;;11.90;73.80;;;;;;5010587;28;20038;-70
2021/03/31 01:32:09;;;;;;;34.67;14.88;;;11.80;73.90;;;;;;5011567;28;20033;-70
2021/03/31 01:34:44;;;;;;;26.33;14.77;;;11.80;73.70;;;;;;5012462;28;20057;-69
2021/03/31 01:37:34;;;;;;;23.73;12.55;;;11.80;73.70;;;;;;5011861;28;20026;-69
2021/03/31 01:40:04;;;;;;;27.67;13.65;;;11.80;74.80;;;;;;5011290;28;20029;-69
2021/03/31 01:42:35;;;;;;;22.10;11.93;;;11.80;74.20;;;;;;5011850;28;20038;-69
2021/03/31 01:45:04;;;;;;;23.23;12.73;;;11.70;73.80;;;;;;5010918;28;20032;-70
2021/03/31 01:47:33;;;;;;;26.25;12.50;;;11.70;74.10;;;;;;5009718;28;20447;-69
2021/03/31 01:50:00;;;;;;;26.48;13.85;;;11.70;74.20;;;;;;5011980;28;20092;-69
2021/03/31 01:52:26;;;;;;;29.92;13.65;;;11.70;73.80;;;;;;5010764;28;20144;-70
2021/03/31 01:54:53;;;;;;;24.67;14.15;;;11.60;74.40;;;;;;5012030;28;20037;-69
2021/03/31 01:57:23;;;;;;;24.75;13.20;;;11.60;74.40;;;;;;5011755;28;20148;-69
2021/03/31 01:59:51;;;;;;;21.13;12.55;;;11.60;74.70;;;;;;5012010;28;20092;-69
2021/03/31 02:02:18;;;;;;;24.45;12.20;;;11.60;74.70;;;;;;5010138;28;20074;-69
2021/03/31 02:04:46;;;;;;;24.00;13.07;;;11.50;74.20;;;;;;5011242;28;20076;-68
2021/03/31 02:07:12;;;;;;;23.63;11.68;;;11.50;74.30;;;;;;5010753;28;20117;-70
2021/03/31 02:09:46;;;;;;;25.75;12.77;;;11.50;74.10;;;;;;5014116;28;20419;-70
2021/03/31 02:12:14;;;;;;;25.17;13.35;;;11.50;74.20;;;;;;5012536;28;20709;-69
2021/03/31 02:14:48;;;;;;;27.50;13.48;;;11.50;74.60;;;;;;5012209;28;20045;-70
2021/03/31 02:17:18;;;;;;;21.83;11.80;;;11.40;74.30;;;;;;5010167;28;20034;-69
2021/03/31 02:19:46;;;;;;;20.43;11.60;;;11.50;74.40;;;;;;5011151;28;20518;-69
2021/03/31 02:22:15;;;;;;;21.10;12.60;;;11.50;74.10;;;;;;5010410;28;20034;-69
2021/03/31 02:24:42;;;;;;;21.85;11.85;;;11.40;74.70;;;;;;5010745;28;20072;-70
2021/03/31 02:27:07;;;;;;;26.02;12.57;;;11.40;74.30;;;;;;5010858;28;20476;-69
2021/03/31 02:29:33;;;;;;;22.42;12.65;;;11.40;75.00;;;;;;5011073;28;20029;-69
2021/03/31 02:31:59;;;;;;;24.30;12.25;;;11.40;75.00;;;;;;5011209;28;20112;-69
2021/03/31 02:34:28;;;;;;;23.23;11.98;;;11.40;74.60;;;;;;5010930;28;20026;-69
2021/03/31 02:36:54;;;;;;;22.58;12.15;;;11.30;74.50;;;;;;5007754;28;20034;-69
2021/03/31 02:39:22;;;;;;;27.33;12.73;;;11.30;74.60;;;;;;5007525;28;20036;-69
2021/03/31 02:41:50;;;;;;;21.00;12.40;;;11.30;74.70;;;;;;5011017;28;20034;-70
2021/03/31 02:44:20;;;;;;;21.67;11.98;;;11.30;75.50;;;;;;5011223;28;20037;-69
2021/03/31 02:46:47;;;;;;;25.73;12.68;;;11.20;75.70;;;;;;5011227;28;20030;-70
2021/03/31 02:49:14;;;;;;;22.05;11.85;;;11.20;75.10;;;;;;5011492;28;20076;-69
2021/03/31 02:51:41;;;;;;;21.70;12.35;;;11.10;75.00;;;;;;5009394;28;20018;-70
2021/03/31 02:54:09;;;;;;;23.00;11.95;;;11.10;75.80;;;;;;5010629;28;20026;-70
2021/03/31 02:56:38;;;;;;;22.85;12.30;;;11.10;75.40;;;;;;5011337;28;20033;-69
2021/03/31 02:59:04;;;;;;;22.38;12.27;;;11.10;75.70;;;;;;5011156;28;20126;-69
2021/03/31 03:01:30;;;;;;;22.55;12.15;;;11.10;75.90;;;;;;5010419;28;20022;-69
2021/03/31 03:03:56;;;;;;;22.23;11.70;;;11.00;75.70;;;;;;5009795;28;20037;-69
2021/03/31 03:06:27;;;;;;;27.13;12.98;;;11.00;75.40;;;;;;5009793;28;20045;-70
2021/03/31 03:08:55;;;;;;;19.03;11.00;;;11.00;76.20;;;;;;5010056;28;20029;-69
2021/03/31 03:11:22;;;;;;;21.92;12.27;;;11.00;76.00;;;;;;5010239;28;20022;-69
2021/03/31 03:13:49;;;;;;;20.92;10.85;;;11.00;76.00;;;;;;5010874;28;20534;-68
2021/03/31 03:16:16;;;;;;;21.33;12.57;;;11.00;75.50;;;;;;5010748;28;20036;-69
2021/03/31 03:18:42;;;;;;;21.45;11.27;;;11.00;76.20;;;;;;5010346;28;20041;-69
2021/03/31 03:21:09;;;;;;;24.00;11.40;;;10.90;75.80;;;;;;5009202;28;20160;-69
2021/03/31 03:23:36;;;;;;;19.08;11.30;;;10.90;75.70;;;;;;5010267;28;20030;-69
2021/03/31 03:26:02;;;;;;;26.27;12.65;;;10.90;76.20;;;;;;5009943;28;20558;-69
2021/03/31 03:28:30;;;;;;;21.25;10.77;;;10.90;76.80;;;;;;5010228;28;20042;-69
2021/03/31 03:30:57;;;;;;;24.10;11.38;;;10.90;76.30;;;;;;5010002;28;20021;-70
2021/03/31 03:33:25;;;;;;;23.02;12.57;;;10.80;75.80;;;;;;5008289;28;20048;-69
2021/03/31 03:35:50;;;;;;;20.30;11.20;;;10.80;76.20;;;;;;5008925;28;20034;-68
2021/03/31 03:38:17;;;;;;;19.15;11.65;;;10.80;76.20;;;;;;5010559;28;20045;-69
2021/03/31 03:40:46;;;;;;;21.35;11.35;;;10.80;76.10;;;;;;5009057;28;20491;-69
2021/03/31 03:43:14;;;;;;;18.23;11.00;;;10.70;75.80;;;;;;5010313;28;20018;-69
2021/03/31 03:45:42;;;;;;;21.50;11.10;;;10.70;76.20;;;;;;5010372;28;20025;-70
2021/03/31 03:48:10;;;;;;;17.75;10.90;;;10.70;76.40;;;;;;5009412;28;20037;-69
2021/03/31 03:50:36;;;;;;;20.42;11.98;;;10.70;76.30;;;;;;5008160;28;20034;-70
2021/03/31 03:53:02;;;;;;;27.00;12.52;;;10.70;76.10;;;;;;5008272;28;20084;-69
2021/03/31 03:55:28;;;;;;;21.25;11.25;;;10.70;76.20;;;;;;5008641;28;20108;-70
2021/03/31 03:57:54;;;;;;;20.60;11.65;;;10.70;76.40;;;;;;5009571;28;20116;-69
2021/03/31 04:00:23;;;;;;;20.60;12.38;;;10.60;76.50;;;;;;5009354;28;20026;-70
2021/03/31 04:02:55;;;;;;;21.92;11.50;;;10.50;76.40;;;;;;5008608;28;20068;-69
2021/03/31 04:05:21;;;;;;;25.70;12.35;;;10.60;76.50;;;;;;5009511;28;20040;-70
2021/03/31 04:07:48;;;;;;;22.75;11.73;;;10.60;76.50;;;;;;5009735;28;20038;-70
2021/03/31 04:10:16;;;;;;;23.23;11.93;;;10.50;76.60;;;;;;5009686;28;20026;-69
2021/03/31 04:12:43;;;;;;;19.60;11.60;;;10.50;76.20;;;;;;5008561;28;20549;-70
2021/03/31 04:15:10;;;;;;;19.88;11.57;;;10.50;76.60;;;;;;5008634;28;20033;-68
2021/03/31 04:17:39;;;;;;;18.90;11.32;;;10.50;76.30;;;;;;5008331;28;20613;-69
2021/03/31 04:20:09;;;;;;;21.13;11.88;;;10.50;76.30;;;;;;5009853;28;20029;-68
2021/03/31 04:22:35;;;;;;;21.07;12.40;;;10.50;76.10;;;;;;5009731;28;20114;-69
2021/03/31 04:25:01;;;;;;;20.48;11.65;;;10.50;75.60;;;;;;5009171;28;20026;-69
2021/03/31 04:27:28;;;;;;;19.45;11.25;;;10.50;75.60;;;;;;5009618;28;20049;-69
2021/03/31 04:29:54;;;;;;;20.25;12.50;;;10.50;75.70;;;;;;5006204;28;20030;-70
2021/03/31 04:32:20;;;;;;;21.95;11.00;;;10.40;74.80;;;;;;4991989;28;20022;-70
2021/03/31 04:34:46;;;;;;;17.25;11.25;;;10.40;75.20;;;;;;5008477;28;20037;-69
2021/03/31 04:37:15;;;;;;;21.08;12.77;;;10.40;75.20;;;;;;5009160;28;20072;-70
2021/03/31 04:39:42;;;;;;;21.20;12.48;;;10.40;75.70;;;;;;5007097;28;20021;-69
2021/03/31 04:42:08;;;;;;;24.50;13.55;;;10.40;75.10;;;;;;5009227;28;20565;-68
2021/03/31 04:44:34;;;;;;;19.30;12.52;;;10.40;75.70;;;;;;5009328;28;20053;-68
2021/03/31 04:47:01;;;;;;;25.48;11.77;;;10.40;75.40;;;;;;5009085;28;20068;-69
2021/03/31 04:49:27;;;;;;;22.42;13.27;;;10.40;75.00;;;;;;5008593;28;20030;-69
2021/03/31 04:51:53;;;;;;;19.00;11.20;;;10.40;75.40;;;;;;5007142;28;20527;-70
2021/03/31 04:54:19;;;;;;;22.70;12.32;;;10.30;74.80;;;;;;5007582;28;20072;-70
2021/03/31 04:56:44;;;;;;;19.08;11.65;;;10.30;74.70;;;;;;5007141;28;20053;-69
2021/03/31 04:59:10;;;;;;;23.10;11.82;;;10.30;75.10;;;;;;5009540;28;20088;-69
2021/03/31 05:01:36;;;;;;;24.38;12.20;;;10.30;74.60;;;;;;5008176;28;20097;-69
2021/03/31 05:04:01;;;;;;;20.40;11.77;;;10.30;74.90;;;;;;5012760;28;20438;-69
2021/03/31 05:06:27;;;;;;;19.42;11.60;;;10.30;75.20;;;;;;5014967;28;20065;-69
2021/03/31 05:08:53;;;;;;;21.90;12.75;;;10.30;75.50;;;;;;5012020;28;20069;-69
2021/03/31 05:11:19;;;;;;;25.00;13.10;;;10.30;75.10;;;;;;5012651;28;20542;-70
2021/03/31 05:13:45;;;;;;;20.92;12.85;;;10.30;75.00;;;;;;5051457;23;20045;-73
2021/03/31 05:16:10;;;;;;;24.30;13.45;;;10.30;75.20;;;;;;5026870;28;20032;-72
2021/03/31 05:18:36;;;;;;;21.60;12.38;;;10.30;75.00;;;;;;5021327;28;20483;-72
2021/03/31 05:21:02;;;;;;;24.38;13.80;;;10.30;75.10;;;;;;5031522;28;20099;-71
2021/03/31 05:23:28;;;;;;;23.48;13.05;;;10.30;74.70;;;;;;5029154;28;20042;-72
2021/03/31 05:25:53;;;;;;;21.38;12.10;;;10.30;74.40;;;;;;5028284;28;20045;-71
2021/03/31 05:28:19;;;;;;;20.38;12.45;;;10.30;74.50;;;;;;5026132;28;20057;-71
2021/03/31 05:30:45;;;;;;;25.42;13.25;;;10.30;74.20;;;;;;5030640;28;20102;-72
2021/03/31 05:33:10;;;;;;;27.95;13.50;;;10.30;74.30;;;;;;5032197;28;20033;-72
2021/03/31 05:35:36;;;;;;;29.58;12.45;;;10.30;74.50;;;;;;5032205;28;20033;-74
2021/03/31 05:38:02;;;;;;;24.35;14.25;;;10.30;74.00;;;;;;5032283;28;20037;-72
2021/03/31 05:40:31;;;;;;;24.23;11.95;;;10.30;74.10;;;;;;5031713;28;20033;-73
2021/03/31 05:42:58;;;;;;;23.25;12.55;;;10.30;74.20;;;;;;5032032;28;20033;-72
2021/03/31 05:45:24;;;;;;;23.95;13.05;;;10.40;73.90;;;;;;5031439;28;20099;-72
2021/03/31 05:47:49;;;;;;;23.20;12.60;;;10.40;73.70;;;;;;5029272;28;20107;-73
2021/03/31 05:50:16;;;;;;;23.48;12.07;;;10.40;74.00;;;;;;5013800;28;20029;-72
2021/03/31 05:52:44;;;;;;;22.30;12.02;;;10.40;73.90;;;;;;5030979;28;20048;-74
2021/03/31 05:55:12;;;;;;;23.15;12.52;;;10.40;74.10;;;;;;5028367;28;20033;-73
2021/03/31 05:57:38;;;;;;;21.48;11.60;;;10.40;74.10;;;;;;5029241;28;20044;-74
2021/03/31 06:00:07;;;;;;;19.50;12.27;;;10.50;74.00;;;;;;5025400;28;20798;-73
2021/03/31 06:02:34;;;;;;;27.23;13.45;;;10.50;74.40;;;;;;5029383;28;20300;-72
2021/03/31 06:05:00;;;;;;;21.63;12.35;;;10.50;74.50;;;;;;5029765;28;20033;-74
2021/03/31 06:07:26;;;;;;;21.77;12.52;;;10.50;74.20;;;;;;5026186;28;20943;-74
2021/03/31 06:10:13;;;;;;;23.83;13.55;;;10.60;74.40;;;;;;5004880;28;20033;-73
2021/03/31 06:12:45;;;;;;;28.27;14.30;;;10.60;74.20;;;;;;5030793;28;20127;-73
2021/03/31 06:15:37;;;;;;;27.65;14.60;;;10.60;74.20;;;;;;5029748;28;20719;-73
2021/03/31 06:18:13;;;;;;;25.60;13.25;;;10.60;74.10;;;;;;5003737;28;20037;-74
2021/03/31 06:20:45;;;;;;;26.77;13.90;;;10.60;74.20;;;;;;5026105;28;20029;-74
2021/03/31 06:26:23;;;;;;;25.25;14.38;;;10.70;74.30;;;;;;5027960;28;20044;-74
2021/03/31 06:28:58;;;;;;;25.00;14.40;;;10.70;74.20;;;;;;5024872;28;20116;-71
2021/03/31 06:31:33;;;;;;;21.42;12.35;;;10.70;74.10;;;;;;5028330;28;20552;-71
2021/03/31 06:34:06;;;;;;;23.63;13.70;;;10.80;74.00;;;;;;5026826;28;20040;-72
2021/03/31 06:36:39;;;;;;;25.33;13.60;;;10.80;73.50;;;;;;5027735;28;20037;-73
2021/03/31 06:39:26;;;;;;;23.98;13.00;;;10.80;73.60;;;;;;5028213;28;20095;-72
2021/03/31 06:42:02;;;;;;;22.88;12.77;;;10.90;73.10;;;;;;5027635;28;20040;-73
2021/03/31 06:49:49;;;;;;;27.83;14.55;;;11.20;72.90;;;;;;5023795;28;20034;-73
2021/03/31 06:52:15;;;;;;;27.02;14.25;;;11.20;72.40;;;;;;5029255;28;20048;-72
2021/03/31 06:54:58;;;;;;;22.90;14.25;;;11.20;71.90;;;;;;5025352;28;20018;-72
2021/03/31 06:57:29;;;;;;;20.58;12.05;;;11.30;71.90;;;;;;5029704;28;20121;-72
2021/03/31 07:00:08;;;;;;;22.98;14.55;;;11.30;71.80;;;;;;5030833;28;20029;-72
2021/03/31 07:02:36;;;;;;;22.58;12.88;;;11.30;71.40;;;;;;5026549;28;20359;-72
2021/03/31 07:05:03;;;;;;;22.00;12.25;;;11.30;71.40;;;;;;5027432;28;20104;-72
2021/03/31 07:07:37;;;;;;;25.13;14.27;;;11.40;71.30;;;;;;5029075;28;20017;-73
2021/03/31 07:10:31;;;;;;;26.80;14.55;;;11.40;71.10;;;;;;5026168;28;20032;-73
2021/03/31 07:12:57;;;;;;;25.23;13.90;;;11.40;70.30;;;;;;4988148;28;20099;-73
2021/03/31 07:15:25;;;;;;;29.02;14.50;;;11.50;69.80;;;;;;5010863;28;20025;-72
2021/03/31 07:17:57;;;;;;;29.08;13.65;;;11.50;69.00;;;;;;5028521;28;20040;-73
2021/03/31 07:20:24;;;;;;;23.75;13.40;;;11.60;68.30;;;;;;5036174;28;20029;-72
2021/03/31 07:22:52;;;;;;;18.42;12.98;;;11.60;68.20;;;;;;5029370;28;20111;-72
2021/03/31 07:25:17;;;;;;;24.05;12.98;;;11.60;68.30;;;;;;5027321;28;20033;-72
2021/03/31 07:27:48;;;;;;;24.20;13.15;;;11.70;67.60;;;;;;5026911;28;20041;-72
2021/03/31 07:30:18;;;;;;;25.85;14.93;;;11.80;67.40;;;;;;5028344;28;20108;-73
2021/03/31 07:32:57;;;;;;;23.77;13.82;;;11.80;66.90;;;;;;5029169;28;20033;-72
2021/03/31 07:35:29;;;;;;;28.83;15.05;;;11.80;66.10;;;;;;5008981;28;20502;-73
2021/03/31 07:38:01;;;;;;;28.95;14.93;;;12.00;64.20;;;;;;5026156;28;20091;-73
2021/03/31 07:40:29;;;;;;;26.95;14.43;;;12.00;62.80;;;;;;5026574;28;20025;-73
2021/03/31 07:43:01;;;;;;;24.45;14.77;;;12.10;62.40;;;;;;5026525;28;20486;-73
2021/03/31 07:45:31;;;;;;;28.40;14.52;;;12.10;61.90;;;;;;5028238;28;20497;-75
2021/03/31 07:47:58;;;;;;;24.77;14.75;;;12.30;60.40;;;;;;5029445;28;20038;-73
2021/03/31 07:50:24;;;;;;;25.98;15.40;;;12.30;59.50;;;;;;5030049;28;20029;-72
2021/03/31 07:53:01;;;;;;;29.70;14.68;;;12.40;58.80;;;;;;5030988;28;20075;-74
2021/03/31 07:55:34;;;;;;;27.95;14.50;;;12.40;59.20;;;;;;5028479;28;20100;-74
2021/03/31 07:58:12;;;;;;;25.05;15.45;;;12.50;59.40;;;;;;5029702;28;20037;-73
2021/03/31 08:00:56;;;;;;;28.40;15.98;;;12.60;58.20;;;;;;5014747;28;20112;-73
2021/03/31 08:03:27;;;;;;;28.15;14.43;;;12.60;57.90;;;;;;5025780;28;20541;-73
2021/03/31 08:06:12;;;;;;;27.80;14.98;;;12.70;57.70;;;;;;5023787;28;20033;-73
2021/03/31 08:08:54;;;;;;;26.25;15.55;;;12.80;57.50;;;;;;5030547;28;20037;-72
2021/03/31 08:11:38;;;;;;;28.00;15.35;;;12.90;56.70;;;;;;5029447;28;20468;-72
2021/03/31 08:14:12;;;;;;;25.15;14.30;;;13.00;56.80;;;;;;5027714;28;20033;-73
2021/03/31 08:16:50;;;;;;;26.70;14.40;;;13.10;56.30;;;;;;5028249;28;20875;-73
2021/03/31 08:19:20;;;;;;;25.15;15.52;;;13.30;55.00;;;;;;5030259;28;20037;-73
2021/03/31 08:21:50;;;;;;;28.88;15.93;;;13.30;54.40;;;;;;5031041;28;20026;-73
2021/03/31 08:24:17;;;;;;;26.63;16.15;;;13.40;53.70;;;;;;5031378;28;20033;-74
2021/03/31 08:26:47;;;;;;;28.52;15.80;;;13.40;54.40;;;;;;5026347;28;20168;-74
2021/03/31 08:29:22;;;;;;;27.67;15.07;;;13.60;54.30;;;;;;5029094;28;20033;-76
2021/03/31 08:32:01;;;;;;;29.95;16.38;;;13.70;52.80;;;;;;5023513;28;20280;-74
2021/03/31 08:34:28;;;;;;;31.38;14.98;;;13.80;53.20;;;;;;5026746;28;20676;-74
2021/03/31 08:36:54;;;;;;;25.60;15.43;;;13.80;53.00;;;;;;5029693;28;20032;-73
2021/03/31 08:39:22;;;;;;;26.50;14.82;;;13.90;53.10;;;;;;5029192;28;20050;-73
2021/03/31 08:41:55;;;;;;;24.83;15.13;;;14.00;52.90;;;;;;5027284;28;20047;-73
2021/03/31 08:44:31;;;;;;;27.60;15.82;;;14.00;52.90;;;;;;5032076;28;20036;-73
2021/03/31 08:47:13;;;;;;;27.15;15.35;;;14.10;52.00;;;;;;5025770;28;20041;-73
2021/03/31 08:49:40;;;;;;;30.55;16.10;;;14.30;52.00;;;;;;5026505;28;20025;-74
2021/03/31 08:52:14;;;;;;;31.80;16.00;;;14.30;51.70;;;;;;5032959;28;20029;-74
2021/03/31 08:54:43;;;;;;;22.98;14.68;;;14.40;51.70;;;;;;5031343;28;20033;-74
2021/03/31 08:57:12;;;;;;;26.23;14.77;;;14.40;51.60;;;;;;5031615;28;20033;-74
2021/03/31 08:59:39;;;;;;;30.13;15.57;;;14.50;51.80;;;;;;5029398;28;20029;-74
2021/03/31 09:02:06;;;;;;;28.65;14.90;;;14.60;51.00;;;;;;5032840;28;20029;-74
2021/03/31 09:04:33;;;;;;;32.05;16.23;;;14.70;49.90;;;;;;5028487;28;20060;-74
2021/03/31 09:07:01;;;;;;;25.90;14.63;;;14.80;49.30;;;;;;5030210;28;20045;-74
2021/03/31 09:09:37;;;;;;;32.15;17.40;;;14.90;49.30;;;;;;5029724;28;20090;-73
2021/03/31 09:12:05;;;;;;;26.77;14.32;;;15.00;49.00;;;;;;5036388;28;20030;-74
2021/03/31 09:14:32;;;;;;;25.77;14.60;;;15.10;49.10;;;;;;5032081;28;20112;-74
2021/03/31 09:17:01;;;;;;;27.83;15.23;;;15.10;49.10;;;;;;5029103;28;20030;-74
2021/03/31 09:19:36;;;;;;;25.67;13.57;;;15.20;49.50;;;;;;5030312;28;20104;-74
2021/03/31 09:22:11;;;;;;;30.00;14.43;;;15.20;49.00;;;;;;5031480;28;20518;-74
2021/03/31 09:24:47;;;;;;;28.20;15.00;;;15.30;49.30;;;;;;5026292;28;20038;-73
2021/03/31 09:27:16;;;;;;;23.88;13.98;;;15.30;48.90;;;;;;5027118;28;20025;-74
2021/03/31 09:29:43;;;;;;;25.23;13.75;;;15.30;49.60;;;;;;5029493;28;20484;-73
2021/03/31 09:32:16;;;;;;;25.17;14.77;;;15.40;49.30;;;;;;5028217;28;20471;-74
2021/03/31 09:34:43;;;;;;;24.38;12.93;;;15.40;49.10;;;;;;5032425;28;20387;-75
2021/03/31 09:37:13;;;;;;;21.50;12.40;;;15.40;49.80;;;;;;5015371;28;20024;-73
2021/03/31 09:39:49;;;;;;;22.13;12.35;;;15.50;50.50;;;;;;5032642;28;20048;-74
2021/03/31 09:42:31;;;;;;;22.42;13.20;;;15.60;49.60;;;;;;5015826;28;20037;-74
2021/03/31 09:44:57;;;;;;;24.73;14.27;;;15.70;49.40;;;;;;5031052;28;20041;-73
2021/03/31 09:47:25;;;;;;;27.75;14.73;;;15.90;48.80;;;;;;5032786;28;20037;-74
2021/03/31 09:49:52;;;;;;;26.88;13.93;;;15.90;48.50;;;;;;5024848;28;20065;-73
2021/03/31 09:52:29;;;;;;;24.33;14.48;;;16.00;46.40;;;;;;5032477;28;20135;-74
2021/03/31 09:55:04;;;;;;;23.85;14.45;;;16.10;47.60;;;;;;5030080;28;20044;-74
2021/03/31 09:57:30;;;;;;;33.00;14.73;;;16.20;47.90;;;;;;5015093;28;20052;-75
2021/03/31 10:00:01;;;;;;;26.25;13.88;;;16.20;47.40;;;;;;5033322;28;20037;-73
2021/03/31 10:02:27;;;;;;;29.02;15.48;;;16.30;48.40;;;;;;5029907;28;20024;-75
2021/03/31 10:04:53;;;;;;;23.83;12.68;;;16.40;47.10;;;;;;5031900;28;20036;-72
2021/03/31 10:07:20;;;;;;;26.83;15.13;;;16.40;48.20;;;;;;5032202;28;20022;-72
2021/03/31 10:09:50;;;;;;;24.90;13.60;;;16.50;47.00;;;;;;5029527;28;20025;-72
2021/03/31 10:12:27;;;;;;;28.08;15.02;;;16.50;47.50;;;;;;5030937;28;20347;-70
2021/03/31 10:14:55;;;;;;;30.58;16.70;;;16.60;46.30;;;;;;5031104;28;20475;-72
2021/03/31 10:17:26;;;;;;;26.30;13.82;;;16.70;46.00;;;;;;5029921;28;20044;-72
2021/03/31 10:19:52;;;;;;;27.45;14.55;;;16.70;46.80;;;;;;5030978;28;20458;-72
2021/03/31 10:22:29;;;;;;;27.05;15.40;;;16.70;46.70;;;;;;5026074;28;20472;-70
2021/03/31 10:24:54;;;;;;;23.67;14.70;;;16.90;45.00;;;;;;5011801;28;20423;-69
2021/03/31 10:27:43;;;;;;;28.60;14.30;;;17.10;44.70;;;;;;5029228;28;20036;-69
2021/03/31 10:30:22;;;;;;;25.85;15.60;;;17.10;45.60;;;;;;5029134;28;20052;-70
2021/03/31 10:32:48;;;;;;;28.35;14.48;;;17.10;45.80;;;;;;5011599;28;20044;-70
2021/03/31 10:35:15;;;;;;;23.33;13.85;;;17.10;46.80;;;;;;5028454;28;20044;-70
2021/03/31 10:37:55;;;;;;;22.70;13.13;;;17.10;47.20;;;;;;5026475;28;20026;-71
2021/03/31 10:48:56;;;;;;;27.08;15.68;;;17.20;47.40;;;;;;5031910;28;20029;-69
2021/03/31 10:54:07;;;;;;;33.15;15.85;;;17.30;47.70;;;;;;5024407;28;20029;-72
2021/03/31 10:56:35;;;;;;;21.90;12.90;;;17.40;45.80;;;;;;5028770;28;20076;-72
2021/03/31 10:59:01;;;;;;;25.90;14.40;;;17.40;47.00;;;;;;5031067;28;20113;-74
2021/03/31 11:01:26;;;;;;;23.67;12.32;;;17.50;46.30;;;;;;5031229;28;20029;-74
2021/03/31 11:03:52;;;;;;;20.15;13.80;;;17.70;47.20;;;;;;5029685;28;20034;-76
2021/03/31 11:06:18;;;;;;;25.48;14.50;;;17.80;48.30;;;;;;5012880;28;20662;-75
2021/03/31 11:08:44;;;;;;;28.42;14.27;;;18.10;48.30;;;;;;5032327;28;20363;-71
2021/03/31 11:11:12;;;;;;;25.33;14.23;;;18.50;49.50;;;;;;5027033;28;20105;-72
2021/03/31 11:13:38;;;;;;;26.00;15.20;;;19.20;46.00;;;;;;5027677;22;20057;-72
2021/03/31 11:16:09;;;;;;;23.05;13.65;;;20.40;43.70;;;;;;4988300;28;20046;-74
2021/03/31 11:21:36;;;;;;;27.02;14.95;;;23.10;37.50;;;;;;4990877;28;20038;-73
2021/03/31 11:26:38;;;;;;;18.77;13.02;;;25.60;35.30;;;;;;4969180;28;20658;-71
2021/03/31 11:29:03;;;;;;;21.05;14.55;;;26.40;35.20;;;;;;4970274;28;20041;-71
2021/03/31 11:31:29;;;;;;;24.48;14.32;;;26.80;32.70;;;;;;4971686;28;20070;-73
2021/03/31 11:33:55;;;;;;;27.98;15.80;;;27.20;31.70;;;;;;4969537;28;20022;-72
2021/03/31 11:36:21;;;;;;;30.52;18.70;;;27.30;30.30;;;;;;4969843;28;20030;-71
2021/03/31 11:38:47;;;;;;;25.40;16.63;;;27.50;29.90;;;;;;4969458;28;20057;-71
2021/03/31 11:41:12;;;;;;;23.73;16.27;;;27.20;31.10;;;;;;4968323;28;20085;-68
2021/03/31 11:43:38;;;;;;;33.00;17.40;;;27.30;29.90;;;;;;4970238;28;20027;-67
2021/03/31 11:46:04;;;;;;;27.85;16.70;;;27.10;29.50;;;;;;4970748;28;20044;-70
2021/03/31 11:48:30;;;;;;;28.05;17.33;;;26.70;30.40;;;;;;4967458;28;20035;-69
2021/03/31 11:50:56;;;;;;;24.35;16.30;;;26.90;30.20;;;;;;4971373;28;20471;-69
2021/03/31 11:53:22;;;;;;;26.20;15.45;;;26.70;29.70;;;;;;4965277;28;20061;-70
2021/03/31 11:55:50;;;;;;;22.50;15.82;;;26.50;30.00;;;;;;4968024;28;20054;-69
2021/03/31 11:58:16;;;;;;;28.85;16.90;;;26.40;30.70;;;;;;4964164;28;20109;-67
2021/03/31 12:00:42;;;;;;;24.17;15.90;;;26.10;31.00;;;;;;4970325;28;20480;-71
2021/03/31 12:03:10;;;;;;;23.42;15.82;;;25.50;31.90;;;;;;4967719;28;20042;-68
2021/03/31 12:05:36;;;;;;;24.88;15.57;;;25.20;31.40;;;;;;4969044;28;20206;-69
2021/03/31 12:08:02;;;;;;;27.70;15.25;;;24.80;32.70;;;;;;4967527;28;20035;-69
2021/03/31 12:10:27;;;;;;;21.52;14.07;;;24.40;33.70;;;;;;4968130;28;20034;-70
2021/03/31 12:12:53;;;;;;;26.65;16.48;;;24.20;34.90;;;;;;4970485;28;20085;-69
2021/03/31 12:15:19;;;;;;;22.67;14.20;;;24.20;33.00;;;;;;4968602;28;20069;-70
2021/03/31 12:17:45;;;;;;;24.45;15.30;;;24.10;34.70;;;;;;4971147;28;20034;-71
2021/03/31 12:20:13;;;;;;;24.42;14.63;;;24.40;32.60;;;;;;4971365;28;20198;-71
2021/03/31 12:22:40;;;;;;;23.30;15.13;;;24.40;33.70;;;;;;4972823;28;20033;-69
2021/03/31 12:25:07;;;;;;;22.98;14.43;;;24.30;34.50;;;;;;4972602;28;20035;-69
2021/03/31 12:27:35;;;;;;;23.55;14.60;;;24.40;34.10;;;;;;4972345;28;20110;-70
2021/03/31 12:30:07;;;;;;;23.80;13.38;;;24.80;32.60;;;;;;4971959;28;20031;-69
2021/03/31 12:32:33;;;;;;;21.13;13.07;;;25.20;30.10;;;;;;4967931;28;20559;-68
2021/03/31 12:34:59;;;;;;;22.70;12.77;;;25.50;28.40;;;;;;4974009;28;20038;-69
2021/03/31 12:37:25;;;;;;;18.20;12.02;;;25.60;30.10;;;;;;4972992;28;20038;-70
2021/03/31 12:39:51;;;;;;;17.92;11.15;;;25.50;30.60;;;;;;4971916;28;20401;-69
2021/03/31 12:42:17;;;;;;;18.38;11.23;;;25.50;30.00;;;;;;4972918;28;20374;-69
2021/03/31 12:44:42;;;;;;;18.67;12.23;;;26.10;28.90;;;;;;4973443;28;20042;-68
2021/03/31 12:47:11;;;;;;;22.13;13.32;;;26.00;28.70;;;;;;4973079;28;20030;-70
2021/03/31 12:49:36;;;;;;;20.63;12.25;;;26.10;28.70;;;;;;4970572;28;20038;-70
2021/03/31 12:52:11;;;;;;;21.10;12.38;;;25.80;28.70;;;;;;4968129;28;20033;-70
2021/03/31 12:57:04;;;;;;;18.35;11.80;;;25.30;27.30;;;;;;4970046;28;20473;-66
2021/03/31 12:59:31;;;;;;;22.35;12.73;;;24.70;29.50;;;;;;4971800;28;20062;-69
2021/03/31 13:01:56;;;;;;;23.52;13.45;;;24.50;30.00;;;;;;4971779;28;20030;-72
2021/03/31 13:04:22;;;;;;;22.35;13.52;;;24.40;30.20;;;;;;4956904;28;20031;-72
2021/03/31 13:06:49;;;;;;;22.73;12.77;;;24.20;29.40;;;;;;4974215;28;20428;-71